sensor_id;sensor_type;location;lat;lon;timestamp;temperature;humidity
7234;DHT22;3658;47.992;10.158;2022-09-17T00:01:37;20.80;60.60
7234;DHT22;3658;47.992;10.158;2022-09-17T00:04:04;20.80;60.60
7234;DHT22;3658;47.992;10.158;2022-09-17T00:06:32;20.80;60.60
7234;DHT22;3658;47.992;10.158;2022-09-17T00:09:00;20.80;60.60
7234;DHT22;3658;47.992;10.158;2022-09-17T00:11:29;20.80;60.60
7234;DHT22;3658;47.992;10.158;2022-09-17T00:13:58;20.80;60.60
7234;DHT22;3658;47.992;10.158;2022-09-17T00:16:28;20.80;60.60
7234;DHT22;3658;47.992;10.158;2022-09-17T00:18:57;20.80;60.60
7234;DHT22;3658;47.992;10.158;2022-09-17T00:21:25;20.80;60.60
7234;DHT22;3658;47.992;10.158;2022-09-17T00:23:53;20.80;60.60
7234;DHT22;3658;47.992;10.158;2022-09-17T00:26:21;20.80;60.60
7234;DHT22;3658;47.992;10.158;2022-09-17T00:28:49;20.80;60.70
7234;DHT22;3658;47.992;10.158;2022-09-17T00:31:16;20.80;60.60
7234;DHT22;3658;47.992;10.158;2022-09-17T00:33:43;20.80;60.70
7234;DHT22;3658;47.992;10.158;2022-09-17T00:36:12;20.80;60.70
7234;DHT22;3658;47.992;10.158;2022-09-17T00:38:39;20.80;60.70
7234;DHT22;3658;47.992;10.158;2022-09-17T00:41:07;20.80;60.70
7234;DHT22;3658;47.992;10.158;2022-09-17T00:43:38;20.80;60.70
7234;DHT22;3658;47.992;10.158;2022-09-17T00:46:08;20.80;60.70
7234;DHT22;3658;47.992;10.158;2022-09-17T00:48:37;20.80;60.70
7234;DHT22;3658;47.992;10.158;2022-09-17T00:51:05;20.80;60.70
7234;DHT22;3658;47.992;10.158;2022-09-17T00:53:38;20.70;60.60
7234;DHT22;3658;47.992;10.158;2022-09-17T00:56:08;20.70;60.70
7234;DHT22;3658;47.992;10.158;2022-09-17T00:58:38;20.80;60.70
7234;DHT22;3658;47.992;10.158;2022-09-17T01:01:05;20.70;60.60
7234;DHT22;3658;47.992;10.158;2022-09-17T01:03:32;20.70;60.60
7234;DHT22;3658;47.992;10.158;2022-09-17T01:06:07;20.70;60.60
7234;DHT22;3658;47.992;10.158;2022-09-17T01:08:48;20.70;60.60
7234;DHT22;3658;47.992;10.158;2022-09-17T01:11:35;20.70;60.60
7234;DHT22;3658;47.992;10.158;2022-09-17T01:14:17;20.70;60.70
7234;DHT22;3658;47.992;10.158;2022-09-17T01:16:52;20.70;60.70
7234;DHT22;3658;47.992;10.158;2022-09-17T01:19:56;20.70;60.70
7234;DHT22;3658;47.992;10.158;2022-09-17T01:22:33;20.70;60.70
7234;DHT22;3658;47.992;10.158;2022-09-17T01:25:19;20.70;60.70
7234;DHT22;3658;47.992;10.158;2022-09-17T01:28:21;20.70;60.70
7234;DHT22;3658;47.992;10.158;2022-09-17T01:31:19;20.70;60.70
7234;DHT22;3658;47.992;10.158;2022-09-17T01:33:55;20.70;60.70
7234;DHT22;3658;47.992;10.158;2022-09-17T01:36:34;20.70;60.70
7234;DHT22;3658;47.992;10.158;2022-09-17T01:39:08;20.70;60.70
7234;DHT22;3658;47.992;10.158;2022-09-17T01:41:42;20.70;60.70
7234;DHT22;3658;47.992;10.158;2022-09-17T01:44:14;20.70;60.70
7234;DHT22;3658;47.992;10.158;2022-09-17T01:46:48;20.70;60.70
7234;DHT22;3658;47.992;10.158;2022-09-17T01:49:16;20.70;60.70
7234;DHT22;3658;47.992;10.158;2022-09-17T01:51:46;20.70;60.70
7234;DHT22;3658;47.992;10.158;2022-09-17T01:54:17;20.70;60.70
7234;DHT22;3658;47.992;10.158;2022-09-17T01:56:50;20.70;60.70
7234;DHT22;3658;47.992;10.158;2022-09-17T01:59:25;20.70;60.70
7234;DHT22;3658;47.992;10.158;2022-09-17T02:01:58;20.70;60.80
7234;DHT22;3658;47.992;10.158;2022-09-17T02:04:29;20.70;60.70
7234;DHT22;3658;47.992;10.158;2022-09-17T02:07:01;20.70;60.70
7234;DHT22;3658;47.992;10.158;2022-09-17T02:09:32;20.70;60.80
7234;DHT22;3658;47.992;10.158;2022-09-17T02:12:05;20.70;60.80
7234;DHT22;3658;47.992;10.158;2022-09-17T02:14:38;20.70;60.80
7234;DHT22;3658;47.992;10.158;2022-09-17T02:17:13;20.70;60.80
7234;DHT22;3658;47.992;10.158;2022-09-17T02:19:42;20.70;60.80
7234;DHT22;3658;47.992;10.158;2022-09-17T02:22:16;20.70;60.80
7234;DHT22;3658;47.992;10.158;2022-09-17T02:24:51;20.70;60.80
7234;DHT22;3658;47.992;10.158;2022-09-17T02:27:23;20.70;60.80
7234;DHT22;3658;47.992;10.158;2022-09-17T02:29:52;20.70;60.80
7234;DHT22;3658;47.992;10.158;2022-09-17T02:32:21;20.70;60.80
7234;DHT22;3658;47.992;10.158;2022-09-17T02:34:49;20.70;60.80
7234;DHT22;3658;47.992;10.158;2022-09-17T02:37:16;20.70;60.80
7234;DHT22;3658;47.992;10.158;2022-09-17T02:39:43;20.70;60.80
7234;DHT22;3658;47.992;10.158;2022-09-17T02:42:18;20.60;60.70
7234;DHT22;3658;47.992;10.158;2022-09-17T02:44:53;20.60;60.70
7234;DHT22;3658;47.992;10.158;2022-09-17T02:50:53;20.60;60.70
7234;DHT22;3658;47.992;10.158;2022-09-17T02:53:33;20.60;60.70
7234;DHT22;3658;47.992;10.158;2022-09-17T02:56:10;20.60;60.70
7234;DHT22;3658;47.992;10.158;2022-09-17T02:58:45;20.60;60.70
7234;DHT22;3658;47.992;10.158;2022-09-17T03:01:18;20.60;60.70
7234;DHT22;3658;47.992;10.158;2022-09-17T03:03:49;20.60;60.70
7234;DHT22;3658;47.992;10.158;2022-09-17T03:06:18;20.60;60.70
7234;DHT22;3658;47.992;10.158;2022-09-17T03:08:45;20.60;60.70
7234;DHT22;3658;47.992;10.158;2022-09-17T03:11:13;20.60;60.70
7234;DHT22;3658;47.992;10.158;2022-09-17T03:13:40;20.60;60.70
7234;DHT22;3658;47.992;10.158;2022-09-17T03:16:07;20.60;60.80
7234;DHT22;3658;47.992;10.158;2022-09-17T03:18:34;20.60;60.80
7234;DHT22;3658;47.992;10.158;2022-09-17T03:21:01;20.60;60.80
7234;DHT22;3658;47.992;10.158;2022-09-17T03:23:30;20.60;60.80
7234;DHT22;3658;47.992;10.158;2022-09-17T03:25:58;20.60;60.80
7234;DHT22;3658;47.992;10.158;2022-09-17T03:28:25;20.60;60.80
7234;DHT22;3658;47.992;10.158;2022-09-17T03:30:53;20.60;60.80
7234;DHT22;3658;47.992;10.158;2022-09-17T03:33:20;20.60;60.80
7234;DHT22;3658;47.992;10.158;2022-09-17T03:35:47;20.60;60.80
7234;DHT22;3658;47.992;10.158;2022-09-17T03:38:14;20.60;60.80
7234;DHT22;3658;47.992;10.158;2022-09-17T03:40:42;20.60;60.80
7234;DHT22;3658;47.992;10.158;2022-09-17T03:43:09;20.60;60.80
7234;DHT22;3658;47.992;10.158;2022-09-17T03:45:36;20.60;60.80
7234;DHT22;3658;47.992;10.158;2022-09-17T03:48:03;20.60;60.80
7234;DHT22;3658;47.992;10.158;2022-09-17T03:50:30;20.60;60.80
7234;DHT22;3658;47.992;10.158;2022-09-17T03:52:57;20.60;60.80
7234;DHT22;3658;47.992;10.158;2022-09-17T03:55:24;20.60;60.80
7234;DHT22;3658;47.992;10.158;2022-09-17T03:57:52;20.60;60.80
7234;DHT22;3658;47.992;10.158;2022-09-17T04:00:20;20.60;60.80
7234;DHT22;3658;47.992;10.158;2022-09-17T04:02:47;20.60;60.90
7234;DHT22;3658;47.992;10.158;2022-09-17T04:05:14;20.60;60.90
7234;DHT22;3658;47.992;10.158;2022-09-17T04:07:41;20.60;60.80
7234;DHT22;3658;47.992;10.158;2022-09-17T04:10:08;20.60;60.80
7234;DHT22;3658;47.992;10.158;2022-09-17T04:12:35;20.60;60.80
7234;DHT22;3658;47.992;10.158;2022-09-17T04:15:05;20.60;60.80
7234;DHT22;3658;47.992;10.158;2022-09-17T04:17:32;20.60;60.80
7234;DHT22;3658;47.992;10.158;2022-09-17T04:19:59;20.50;60.70
7234;DHT22;3658;47.992;10.158;2022-09-17T04:22:26;20.50;60.80
7234;DHT22;3658;47.992;10.158;2022-09-17T04:24:53;20.60;60.80
7234;DHT22;3658;47.992;10.158;2022-09-17T04:27:20;20.50;60.70
7234;DHT22;3658;47.992;10.158;2022-09-17T04:29:47;20.50;60.80
7234;DHT22;3658;47.992;10.158;2022-09-17T04:32:15;20.50;60.80
7234;DHT22;3658;47.992;10.158;2022-09-17T04:34:42;20.50;60.70
7234;DHT22;3658;47.992;10.158;2022-09-17T04:37:09;20.50;60.80
7234;DHT22;3658;47.992;10.158;2022-09-17T04:39:36;20.50;60.80
7234;DHT22;3658;47.992;10.158;2022-09-17T04:42:03;20.50;60.80
7234;DHT22;3658;47.992;10.158;2022-09-17T04:44:30;20.50;60.80
7234;DHT22;3658;47.992;10.158;2022-09-17T04:46:57;20.50;60.80
7234;DHT22;3658;47.992;10.158;2022-09-17T04:49:25;20.50;60.80
7234;DHT22;3658;47.992;10.158;2022-09-17T04:51:54;20.50;60.80
7234;DHT22;3658;47.992;10.158;2022-09-17T04:54:21;20.50;60.80
7234;DHT22;3658;47.992;10.158;2022-09-17T04:56:48;20.50;60.80
7234;DHT22;3658;47.992;10.158;2022-09-17T04:59:15;20.50;60.80
7234;DHT22;3658;47.992;10.158;2022-09-17T05:01:42;20.60;60.90
7234;DHT22;3658;47.992;10.158;2022-09-17T05:04:10;20.50;60.90
7234;DHT22;3658;47.992;10.158;2022-09-17T05:06:38;20.50;60.80
7234;DHT22;3658;47.992;10.158;2022-09-17T05:09:05;20.50;60.80
7234;DHT22;3658;47.992;10.158;2022-09-17T05:11:32;20.50;60.80
7234;DHT22;3658;47.992;10.158;2022-09-17T05:13:59;20.50;60.80
7234;DHT22;3658;47.992;10.158;2022-09-17T05:16:26;20.50;60.80
7234;DHT22;3658;47.992;10.158;2022-09-17T05:18:53;20.50;60.80
7234;DHT22;3658;47.992;10.158;2022-09-17T05:21:20;20.50;60.80
7234;DHT22;3658;47.992;10.158;2022-09-17T05:23:48;20.50;60.80
7234;DHT22;3658;47.992;10.158;2022-09-17T05:26:15;20.50;60.80
7234;DHT22;3658;47.992;10.158;2022-09-17T05:28:42;20.50;60.80
7234;DHT22;3658;47.992;10.158;2022-09-17T05:31:09;20.50;60.80
7234;DHT22;3658;47.992;10.158;2022-09-17T05:33:36;20.50;60.80
7234;DHT22;3658;47.992;10.158;2022-09-17T05:36:03;20.50;60.80
7234;DHT22;3658;47.992;10.158;2022-09-17T05:38:30;20.50;60.80
7234;DHT22;3658;47.992;10.158;2022-09-17T05:41:03;20.50;60.80
7234;DHT22;3658;47.992;10.158;2022-09-17T05:43:29;20.50;60.80
7234;DHT22;3658;47.992;10.158;2022-09-17T05:46:00;20.50;60.80
7234;DHT22;3658;47.992;10.158;2022-09-17T05:48:27;20.50;60.80
7234;DHT22;3658;47.992;10.158;2022-09-17T05:50:54;20.50;60.80
7234;DHT22;3658;47.992;10.158;2022-09-17T05:53:21;20.50;60.90
7234;DHT22;3658;47.992;10.158;2022-09-17T05:55:48;20.50;60.90
7234;DHT22;3658;47.992;10.158;2022-09-17T05:58:18;20.50;60.80
7234;DHT22;3658;47.992;10.158;2022-09-17T06:00:45;20.50;60.90
7234;DHT22;3658;47.992;10.158;2022-09-17T06:03:14;20.50;60.90
7234;DHT22;3658;47.992;10.158;2022-09-17T06:05:42;20.50;60.90
7234;DHT22;3658;47.992;10.158;2022-09-17T06:08:09;20.50;60.90
7234;DHT22;3658;47.992;10.158;2022-09-17T06:10:37;20.50;60.80
7234;DHT22;3658;47.992;10.158;2022-09-17T06:13:04;20.50;60.80
7234;DHT22;3658;47.992;10.158;2022-09-17T06:15:33;20.50;60.80
7234;DHT22;3658;47.992;10.158;2022-09-17T06:17:59;20.50;60.80
7234;DHT22;3658;47.992;10.158;2022-09-17T06:20:26;20.50;60.80
7234;DHT22;3658;47.992;10.158;2022-09-17T06:22:57;20.50;60.80
7234;DHT22;3658;47.992;10.158;2022-09-17T06:25:24;20.50;60.90
7234;DHT22;3658;47.992;10.158;2022-09-17T06:27:52;20.50;60.90
7234;DHT22;3658;47.992;10.158;2022-09-17T06:30:18;20.50;60.90
7234;DHT22;3658;47.992;10.158;2022-09-17T06:32:47;20.50;60.90
7234;DHT22;3658;47.992;10.158;2022-09-17T06:35:14;20.50;60.90
7234;DHT22;3658;47.992;10.158;2022-09-17T06:37:41;20.50;60.90
7234;DHT22;3658;47.992;10.158;2022-09-17T06:40:09;20.50;60.90
7234;DHT22;3658;47.992;10.158;2022-09-17T06:42:36;20.50;60.80
7234;DHT22;3658;47.992;10.158;2022-09-17T06:45:04;20.50;60.60
7234;DHT22;3658;47.992;10.158;2022-09-17T06:47:31;20.50;61.00
7234;DHT22;3658;47.992;10.158;2022-09-17T06:49:59;20.50;61.50
7234;DHT22;3658;47.992;10.158;2022-09-17T06:52:27;20.50;61.80
7234;DHT22;3658;47.992;10.158;2022-09-17T06:54:54;20.50;61.90
7234;DHT22;3658;47.992;10.158;2022-09-17T06:57:22;20.50;61.90
7234;DHT22;3658;47.992;10.158;2022-09-17T06:59:49;20.50;61.90
7234;DHT22;3658;47.992;10.158;2022-09-17T07:02:16;20.50;61.90
7234;DHT22;3658;47.992;10.158;2022-09-17T07:04:43;20.50;62.00
7234;DHT22;3658;47.992;10.158;2022-09-17T07:07:12;20.50;61.80
7234;DHT22;3658;47.992;10.158;2022-09-17T07:09:38;20.50;61.80
7234;DHT22;3658;47.992;10.158;2022-09-17T07:12:07;20.50;61.80
7234;DHT22;3658;47.992;10.158;2022-09-17T07:14:34;20.50;61.70
7234;DHT22;3658;47.992;10.158;2022-09-17T07:17:01;20.50;61.70
7234;DHT22;3658;47.992;10.158;2022-09-17T07:19:29;20.50;61.80
7234;DHT22;3658;47.992;10.158;2022-09-17T07:21:56;20.50;61.80
7234;DHT22;3658;47.992;10.158;2022-09-17T07:24:24;20.60;61.90
7234;DHT22;3658;47.992;10.158;2022-09-17T07:26:51;20.50;61.80
7234;DHT22;3658;47.992;10.158;2022-09-17T07:29:18;20.50;61.70
7234;DHT22;3658;47.992;10.158;2022-09-17T07:31:47;20.50;61.60
7234;DHT22;3658;47.992;10.158;2022-09-17T07:34:14;20.50;61.60
7234;DHT22;3658;47.992;10.158;2022-09-17T07:36:42;20.50;61.60
7234;DHT22;3658;47.992;10.158;2022-09-17T07:39:09;20.50;61.60
7234;DHT22;3658;47.992;10.158;2022-09-17T07:41:39;20.50;61.40
7234;DHT22;3658;47.992;10.158;2022-09-17T07:44:06;20.50;61.40
7234;DHT22;3658;47.992;10.158;2022-09-17T07:46:35;20.50;61.30
7234;DHT22;3658;47.992;10.158;2022-09-17T07:49:02;20.50;61.30
7234;DHT22;3658;47.992;10.158;2022-09-17T07:51:29;20.50;61.30
7234;DHT22;3658;47.992;10.158;2022-09-17T07:53:57;20.50;61.30
7234;DHT22;3658;47.992;10.158;2022-09-17T07:56:25;20.50;61.30
7234;DHT22;3658;47.992;10.158;2022-09-17T07:58:54;20.50;61.30
7234;DHT22;3658;47.992;10.158;2022-09-17T08:01:21;20.50;61.40
7234;DHT22;3658;47.992;10.158;2022-09-17T08:03:52;20.50;61.40
7234;DHT22;3658;47.992;10.158;2022-09-17T08:06:21;20.50;61.30
7234;DHT22;3658;47.992;10.158;2022-09-17T08:08:50;20.50;61.30
7234;DHT22;3658;47.992;10.158;2022-09-17T08:11:19;20.50;61.30
7234;DHT22;3658;47.992;10.158;2022-09-17T08:13:47;20.50;61.30
7234;DHT22;3658;47.992;10.158;2022-09-17T08:16:16;20.50;61.30
7234;DHT22;3658;47.992;10.158;2022-09-17T08:18:44;20.50;61.30
7234;DHT22;3658;47.992;10.158;2022-09-17T08:21:12;20.50;61.30
7234;DHT22;3658;47.992;10.158;2022-09-17T08:23:43;20.50;61.30
7234;DHT22;3658;47.992;10.158;2022-09-17T08:26:12;20.50;61.30
7234;DHT22;3658;47.992;10.158;2022-09-17T08:28:43;20.50;61.20
7234;DHT22;3658;47.992;10.158;2022-09-17T08:31:11;20.50;61.20
7234;DHT22;3658;47.992;10.158;2022-09-17T08:33:40;20.50;61.20
7234;DHT22;3658;47.992;10.158;2022-09-17T08:36:10;20.50;61.20
7234;DHT22;3658;47.992;10.158;2022-09-17T08:38:38;20.60;61.20
7234;DHT22;3658;47.992;10.158;2022-09-17T08:41:15;20.50;61.10
7234;DHT22;3658;47.992;10.158;2022-09-17T08:43:48;20.50;61.10
7234;DHT22;3658;47.992;10.158;2022-09-17T08:46:16;20.50;61.10
7234;DHT22;3658;47.992;10.158;2022-09-17T08:48:50;20.50;61.00
7234;DHT22;3658;47.992;10.158;2022-09-17T08:51:27;20.50;61.00
7234;DHT22;3658;47.992;10.158;2022-09-17T08:54:00;20.50;61.00
7234;DHT22;3658;47.992;10.158;2022-09-17T08:56:33;20.50;61.00
7234;DHT22;3658;47.992;10.158;2022-09-17T08:59:14;20.50;61.10
7234;DHT22;3658;47.992;10.158;2022-09-17T09:01:51;20.50;61.40
7234;DHT22;3658;47.992;10.158;2022-09-17T09:04:47;20.50;61.40
7234;DHT22;3658;47.992;10.158;2022-09-17T09:07:22;20.50;61.30
7234;DHT22;3658;47.992;10.158;2022-09-17T09:09:54;20.50;61.20
7234;DHT22;3658;47.992;10.158;2022-09-17T09:12:30;20.50;61.20
7234;DHT22;3658;47.992;10.158;2022-09-17T09:15:01;20.50;61.10
7234;DHT22;3658;47.992;10.158;2022-09-17T09:17:32;20.50;61.10
7234;DHT22;3658;47.992;10.158;2022-09-17T09:20:03;20.50;61.10
7234;DHT22;3658;47.992;10.158;2022-09-17T09:22:42;20.50;61.00
7234;DHT22;3658;47.992;10.158;2022-09-17T09:25:18;20.50;61.00
7234;DHT22;3658;47.992;10.158;2022-09-17T09:28:03;20.50;60.90
7234;DHT22;3658;47.992;10.158;2022-09-17T09:30:40;20.50;60.90
7234;DHT22;3658;47.992;10.158;2022-09-17T09:33:12;20.50;61.00
7234;DHT22;3658;47.992;10.158;2022-09-17T09:35:42;20.50;60.90
7234;DHT22;3658;47.992;10.158;2022-09-17T09:38:19;20.50;60.90
7234;DHT22;3658;47.992;10.158;2022-09-17T09:40:52;20.50;60.90
7234;DHT22;3658;47.992;10.158;2022-09-17T09:43:23;20.50;60.90
7234;DHT22;3658;47.992;10.158;2022-09-17T09:46:07;20.50;60.90
7234;DHT22;3658;47.992;10.158;2022-09-17T09:48:42;20.50;60.90
7234;DHT22;3658;47.992;10.158;2022-09-17T09:51:29;20.40;60.80
7234;DHT22;3658;47.992;10.158;2022-09-17T09:54:08;20.50;60.90
7234;DHT22;3658;47.992;10.158;2022-09-17T09:56:54;20.50;61.00
7234;DHT22;3658;47.992;10.158;2022-09-17T09:59:21;20.50;60.90
7234;DHT22;3658;47.992;10.158;2022-09-17T10:01:49;20.50;60.90
7234;DHT22;3658;47.992;10.158;2022-09-17T10:04:19;20.40;60.80
7234;DHT22;3658;47.992;10.158;2022-09-17T10:06:49;20.40;60.90
7234;DHT22;3658;47.992;10.158;2022-09-17T10:09:17;20.40;60.90
7234;DHT22;3658;47.992;10.158;2022-09-17T10:12:02;20.40;60.90
7234;DHT22;3658;47.992;10.158;2022-09-17T10:14:32;20.40;61.00
7234;DHT22;3658;47.992;10.158;2022-09-17T10:17:17;20.40;61.00
7234;DHT22;3658;47.992;10.158;2022-09-17T10:19:46;20.40;61.00
7234;DHT22;3658;47.992;10.158;2022-09-17T10:22:37;20.40;61.00
7234;DHT22;3658;47.992;10.158;2022-09-17T10:25:15;20.40;60.90
7234;DHT22;3658;47.992;10.158;2022-09-17T10:27:44;20.40;60.80
7234;DHT22;3658;47.992;10.158;2022-09-17T10:30:14;20.40;60.80
7234;DHT22;3658;47.992;10.158;2022-09-17T10:32:42;20.50;60.90
7234;DHT22;3658;47.992;10.158;2022-09-17T10:35:24;20.50;60.80
7234;DHT22;3658;47.992;10.158;2022-09-17T10:37:53;20.40;60.70
7234;DHT22;3658;47.992;10.158;2022-09-17T10:40:27;20.40;60.70
7234;DHT22;3658;47.992;10.158;2022-09-17T10:43:16;20.40;60.70
7234;DHT22;3658;47.992;10.158;2022-09-17T10:45:51;20.40;60.60
7234;DHT22;3658;47.992;10.158;2022-09-17T10:48:21;20.50;60.80
7234;DHT22;3658;47.992;10.158;2022-09-17T10:50:50;20.40;60.70
7234;DHT22;3658;47.992;10.158;2022-09-17T10:53:20;20.40;60.70
7234;DHT22;3658;47.992;10.158;2022-09-17T10:55:51;20.50;60.80
7234;DHT22;3658;47.992;10.158;2022-09-17T10:58:28;20.40;60.70
7234;DHT22;3658;47.992;10.158;2022-09-17T11:01:08;20.40;60.70
7234;DHT22;3658;47.992;10.158;2022-09-17T11:04:12;20.40;60.70
7234;DHT22;3658;47.992;10.158;2022-09-17T11:07:04;20.40;60.80
7234;DHT22;3658;47.992;10.158;2022-09-17T11:09:42;20.40;60.80
7234;DHT22;3658;47.992;10.158;2022-09-17T11:12:24;20.40;60.80
7234;DHT22;3658;47.992;10.158;2022-09-17T11:14:57;20.40;60.80
7234;DHT22;3658;47.992;10.158;2022-09-17T11:17:48;20.40;60.90
7234;DHT22;3658;47.992;10.158;2022-09-17T11:20:28;20.40;60.90
7234;DHT22;3658;47.992;10.158;2022-09-17T11:23:06;20.40;60.80
7234;DHT22;3658;47.992;10.158;2022-09-17T11:25:43;20.40;60.70
7234;DHT22;3658;47.992;10.158;2022-09-17T11:28:22;20.50;60.80
7234;DHT22;3658;47.992;10.158;2022-09-17T11:31:01;20.50;60.80
7234;DHT22;3658;47.992;10.158;2022-09-17T11:33:45;20.40;60.70
7234;DHT22;3658;47.992;10.158;2022-09-17T11:36:18;20.40;60.70
7234;DHT22;3658;47.992;10.158;2022-09-17T11:38:48;20.40;60.70
7234;DHT22;3658;47.992;10.158;2022-09-17T11:41:20;20.40;60.80
7234;DHT22;3658;47.992;10.158;2022-09-17T11:43:58;20.40;60.80
7234;DHT22;3658;47.992;10.158;2022-09-17T11:46:31;20.40;60.80
7234;DHT22;3658;47.992;10.158;2022-09-17T11:49:03;20.40;60.80
7234;DHT22;3658;47.992;10.158;2022-09-17T11:51:34;20.40;60.80
7234;DHT22;3658;47.992;10.158;2022-09-17T11:54:06;20.40;60.80
7234;DHT22;3658;47.992;10.158;2022-09-17T11:56:41;20.40;60.80
7234;DHT22;3658;47.992;10.158;2022-09-17T11:59:13;20.40;60.90
7234;DHT22;3658;47.992;10.158;2022-09-17T12:01:46;20.40;60.90
7234;DHT22;3658;47.992;10.158;2022-09-17T12:04:37;20.40;60.90
7234;DHT22;3658;47.992;10.158;2022-09-17T12:07:16;20.40;60.90
7234;DHT22;3658;47.992;10.158;2022-09-17T12:09:52;20.40;60.90
7234;DHT22;3658;47.992;10.158;2022-09-17T12:12:23;20.40;60.90
7234;DHT22;3658;47.992;10.158;2022-09-17T12:14:55;20.40;60.90
7234;DHT22;3658;47.992;10.158;2022-09-17T12:17:25;20.40;60.90
7234;DHT22;3658;47.992;10.158;2022-09-17T12:19:56;20.40;61.00
7234;DHT22;3658;47.992;10.158;2022-09-17T12:22:25;20.40;61.00
7234;DHT22;3658;47.992;10.158;2022-09-17T12:24:56;20.40;61.00
7234;DHT22;3658;47.992;10.158;2022-09-17T12:27:32;20.40;61.10
7234;DHT22;3658;47.992;10.158;2022-09-17T12:30:07;20.40;61.10
7234;DHT22;3658;47.992;10.158;2022-09-17T12:32:58;20.40;61.00
7234;DHT22;3658;47.992;10.158;2022-09-17T12:38:33;20.40;61.10
7234;DHT22;3658;47.992;10.158;2022-09-17T12:41:15;20.40;61.10
7234;DHT22;3658;47.992;10.158;2022-09-17T12:43:58;20.40;61.00
7234;DHT22;3658;47.992;10.158;2022-09-17T12:46:45;20.40;61.10
7234;DHT22;3658;47.992;10.158;2022-09-17T12:49:33;20.40;61.10
7234;DHT22;3658;47.992;10.158;2022-09-17T12:52:09;20.40;61.10
7234;DHT22;3658;47.992;10.158;2022-09-17T12:54:57;20.40;61.10
7234;DHT22;3658;47.992;10.158;2022-09-17T12:57:37;20.40;61.10
7234;DHT22;3658;47.992;10.158;2022-09-17T13:00:10;20.40;61.00
7234;DHT22;3658;47.992;10.158;2022-09-17T13:02:40;20.40;61.00
7234;DHT22;3658;47.992;10.158;2022-09-17T13:05:32;20.40;61.00
7234;DHT22;3658;47.992;10.158;2022-09-17T13:14:03;20.40;60.80
7234;DHT22;3658;47.992;10.158;2022-09-17T13:16:36;20.40;60.70
7234;DHT22;3658;47.992;10.158;2022-09-17T13:19:14;20.40;60.70
7234;DHT22;3658;47.992;10.158;2022-09-17T13:21:51;20.40;60.70
7234;DHT22;3658;47.992;10.158;2022-09-17T13:24:21;20.40;60.70
7234;DHT22;3658;47.992;10.158;2022-09-17T13:26:50;20.40;60.60
7234;DHT22;3658;47.992;10.158;2022-09-17T13:32:47;20.30;60.50
7234;DHT22;3658;47.992;10.158;2022-09-17T13:35:46;20.30;60.50
7234;DHT22;3658;47.992;10.158;2022-09-17T13:38:13;20.40;60.60
7234;DHT22;3658;47.992;10.158;2022-09-17T13:40:41;20.40;60.70
7234;DHT22;3658;47.992;10.158;2022-09-17T13:43:10;20.30;60.50
7234;DHT22;3658;47.992;10.158;2022-09-17T13:46:06;20.30;60.50
7234;DHT22;3658;47.992;10.158;2022-09-17T13:48:44;20.30;60.50
7234;DHT22;3658;47.992;10.158;2022-09-17T13:51:51;20.30;60.50
7234;DHT22;3658;47.992;10.158;2022-09-17T13:54:21;20.30;60.50
7234;DHT22;3658;47.992;10.158;2022-09-17T13:57:07;20.30;60.50
7234;DHT22;3658;47.992;10.158;2022-09-17T13:59:35;20.30;60.50
7234;DHT22;3658;47.992;10.158;2022-09-17T14:02:36;20.30;60.50
7234;DHT22;3658;47.992;10.158;2022-09-17T14:05:31;20.30;60.40
7234;DHT22;3658;47.992;10.158;2022-09-17T14:08:24;20.30;60.30
7234;DHT22;3658;47.992;10.158;2022-09-17T14:10:57;20.30;60.20
7234;DHT22;3658;47.992;10.158;2022-09-17T14:13:43;20.20;60.10
7234;DHT22;3658;47.992;10.158;2022-09-17T14:19:29;20.00;59.40
7234;DHT22;3658;47.992;10.158;2022-09-17T14:22:07;20.00;59.30
7234;DHT22;3658;47.992;10.158;2022-09-17T14:24:45;20.00;56.80
7234;DHT22;3658;47.992;10.158;2022-09-17T14:27:24;19.90;55.30
7234;DHT22;3658;47.992;10.158;2022-09-17T14:30:03;19.90;55.50
7234;DHT22;3658;47.992;10.158;2022-09-17T14:32:37;19.90;54.70
7234;DHT22;3658;47.992;10.158;2022-09-17T14:35:21;19.90;55.00
7234;DHT22;3658;47.992;10.158;2022-09-17T14:37:54;19.90;55.50
7234;DHT22;3658;47.992;10.158;2022-09-17T14:40:23;20.00;55.90
7234;DHT22;3658;47.992;10.158;2022-09-17T14:42:53;20.10;56.20
7234;DHT22;3658;47.992;10.158;2022-09-17T14:45:24;20.20;56.60
7234;DHT22;3658;47.992;10.158;2022-09-17T14:51:21;20.30;56.30
7234;DHT22;3658;47.992;10.158;2022-09-17T14:54:16;20.30;56.30
7234;DHT22;3658;47.992;10.158;2022-09-17T14:56:50;20.40;56.40
7234;DHT22;3658;47.992;10.158;2022-09-17T14:59:26;20.40;56.50
7234;DHT22;3658;47.992;10.158;2022-09-17T15:01:54;20.40;56.60
7234;DHT22;3658;47.992;10.158;2022-09-17T15:04:23;20.50;56.60
7234;DHT22;3658;47.992;10.158;2022-09-17T15:06:51;20.40;56.60
7234;DHT22;3658;47.992;10.158;2022-09-17T15:09:23;20.50;56.70
7234;DHT22;3658;47.992;10.158;2022-09-17T15:11:53;20.40;56.70
7234;DHT22;3658;47.992;10.158;2022-09-17T15:14:22;20.50;56.90
7234;DHT22;3658;47.992;10.158;2022-09-17T15:16:53;20.50;56.80
7234;DHT22;3658;47.992;10.158;2022-09-17T15:19:23;20.50;56.70
7234;DHT22;3658;47.992;10.158;2022-09-17T15:21:54;20.50;56.70
7234;DHT22;3658;47.992;10.158;2022-09-17T15:24:32;20.50;56.70
7234;DHT22;3658;47.992;10.158;2022-09-17T15:27:04;20.50;56.80
7234;DHT22;3658;47.992;10.158;2022-09-17T15:29:33;20.50;56.80
7234;DHT22;3658;47.992;10.158;2022-09-17T15:32:02;20.50;56.80
7234;DHT22;3658;47.992;10.158;2022-09-17T15:34:30;20.60;56.90
7234;DHT22;3658;47.992;10.158;2022-09-17T15:37:03;20.60;56.90
7234;DHT22;3658;47.992;10.158;2022-09-17T15:39:37;20.60;56.90
7234;DHT22;3658;47.992;10.158;2022-09-17T15:42:13;20.60;57.00
7234;DHT22;3658;47.992;10.158;2022-09-17T15:44:43;20.60;57.00
7234;DHT22;3658;47.992;10.158;2022-09-17T15:50:15;20.60;57.00
7234;DHT22;3658;47.992;10.158;2022-09-17T15:52:43;20.60;57.20
7234;DHT22;3658;47.992;10.158;2022-09-17T15:55:32;20.60;57.40
7234;DHT22;3658;47.992;10.158;2022-09-17T15:58:02;20.60;57.40
7234;DHT22;3658;47.992;10.158;2022-09-17T16:00:29;20.60;57.30
7234;DHT22;3658;47.992;10.158;2022-09-17T16:02:57;20.60;57.10
7234;DHT22;3658;47.992;10.158;2022-09-17T16:05:43;20.60;57.00
7234;DHT22;3658;47.992;10.158;2022-09-17T16:08:21;20.60;56.80
7234;DHT22;3658;47.992;10.158;2022-09-17T16:10:50;20.60;56.70
7234;DHT22;3658;47.992;10.158;2022-09-17T16:13:18;20.60;56.70
7234;DHT22;3658;47.992;10.158;2022-09-17T16:15:45;20.60;56.70
7234;DHT22;3658;47.992;10.158;2022-09-17T16:18:13;20.60;56.70
7234;DHT22;3658;47.992;10.158;2022-09-17T16:20:41;20.60;56.60
7234;DHT22;3658;47.992;10.158;2022-09-17T16:23:08;20.70;56.60
7234;DHT22;3658;47.992;10.158;2022-09-17T16:25:36;20.70;56.60
7234;DHT22;3658;47.992;10.158;2022-09-17T16:28:10;20.70;56.50
7234;DHT22;3658;47.992;10.158;2022-09-17T16:30:40;20.60;56.40
7234;DHT22;3658;47.992;10.158;2022-09-17T16:33:10;20.70;56.50
7234;DHT22;3658;47.992;10.158;2022-09-17T16:35:37;20.70;56.50
7234;DHT22;3658;47.992;10.158;2022-09-17T16:38:04;20.70;56.50
7234;DHT22;3658;47.992;10.158;2022-09-17T16:40:31;20.70;56.60
7234;DHT22;3658;47.992;10.158;2022-09-17T16:42:59;20.70;56.70